Time;durP1;ratioP1;P1;durP2;ratioP2;P2;SDS_P1;SDS_P2;PMS_P1;PMS_P2;Temp;Humidity;BMP_temperature;BMP_pressure;BME280_temperature;BME280_humidity;BME280_pressure;Samples;Min_cycle;Max_cycle;Signal;HPM_P1;HPM_P2
2023/01/09 00:01:54;;;;;;;65.57;49.30;;;15.30;76.80;;;;;;4922596;28;97535;-47
2023/01/09 00:04:19;;;;;;;64.85;49.17;;;15.30;76.70;;;;;;4926564;28;94805;-49
2023/01/09 00:06:52;;;;;;;63.83;48.95;;;15.20;76.70;;;;;;4927363;28;95022;-48
2023/01/09 00:09:24;;;;;;;64.28;49.38;;;15.20;76.60;;;;;;4915708;28;96038;-49
2023/01/09 00:11:50;;;;;;;64.70;49.10;;;15.20;76.70;;;;;;4927767;28;102674;-49
2023/01/09 00:14:16;;;;;;;63.70;48.88;;;15.20;76.70;;;;;;4922526;28;98267;-49
2023/01/09 00:16:42;;;;;;;64.20;49.33;;;15.20;76.60;;;;;;4920799;28;97660;-50
2023/01/09 00:19:08;;;;;;;64.25;49.05;;;15.20;76.80;;;;;;4915693;28;96843;-50
2023/01/09 00:21:35;;;;;;;64.22;49.10;;;15.10;76.40;;;;;;4927764;28;95850;-49
2023/01/09 00:24:01;;;;;;;65.05;49.17;;;15.10;76.30;;;;;;4930084;28;96138;-47
2023/01/09 00:26:26;;;;;;;64.15;49.25;;;15.10;76.40;;;;;;4922098;28;94118;-50
2023/01/09 00:28:53;;;;;;;64.50;48.88;;;15.10;76.40;;;;;;4922941;28;96421;-48
2023/01/09 00:31:20;;;;;;;66.20;49.25;;;15.10;76.50;;;;;;4916735;28;95331;-46
2023/01/09 00:33:57;;;;;;;64.28;49.10;;;15.10;76.40;;;;;;4916040;28;102609;-48
2023/01/09 00:36:22;;;;;;;65.32;48.78;;;15.10;76.30;;;;;;4917377;28;97872;-49
2023/01/09 00:38:49;;;;;;;63.17;48.78;;;15.10;76.20;;;;;;4933917;28;95011;-48
2023/01/09 00:41:24;;;;;;;64.50;48.95;;;15.10;76.20;;;;;;4921928;28;99468;-48
2023/01/09 00:43:54;;;;;;;64.60;48.95;;;15.10;76.40;;;;;;4920048;28;95821;-48
2023/01/09 00:46:28;;;;;;;63.40;48.77;;;15.10;76.30;;;;;;4912395;28;95768;-47
2023/01/09 00:48:54;;;;;;;64.25;49.00;;;15.00;76.20;;;;;;4915824;28;97566;-48
2023/01/09 00:51:19;;;;;;;64.22;49.17;;;15.00;76.20;;;;;;4923059;28;95425;-47
2023/01/09 00:53:47;;;;;;;63.75;48.88;;;15.00;76.20;;;;;;4921812;28;96466;-51
2023/01/09 00:56:16;;;;;;;63.72;49.03;;;15.00;76.30;;;;;;4919747;28;96612;-48
2023/01/09 00:58:42;;;;;;;63.58;48.95;;;15.00;76.40;;;;;;4921057;28;96570;-49
2023/01/09 01:01:07;;;;;;;63.40;49.17;;;15.00;76.20;;;;;;4929025;28;95897;-45
2023/01/09 01:03:33;;;;;;;63.33;48.70;;;15.00;76.10;;;;;;4916900;28;95230;-49
2023/01/09 01:08:44;;;;;;;64.82;49.40;;;15.00;76.00;;;;;;4920335;28;96304;-49
2023/01/09 01:11:11;;;;;;;64.00;49.17;;;15.00;76.00;;;;;;4919000;28;99038;-49
2023/01/09 01:13:38;;;;;;;63.40;49.13;;;15.00;76.00;;;;;;4922116;28;96382;-46
2023/01/09 01:16:09;;;;;;;63.80;48.85;;;15.00;76.60;;;;;;4909698;28;97110;-49
2023/01/09 01:18:35;;;;;;;64.37;48.93;;;15.00;75.90;;;;;;4919653;28;96979;-49
2023/01/09 01:21:05;;;;;;;63.95;48.95;;;15.00;75.80;;;;;;4921114;28;95931;-48
2023/01/09 01:23:31;;;;;;;65.22;49.25;;;15.00;75.70;;;;;;4924258;28;95902;-47
2023/01/09 01:25:56;;;;;;;63.55;48.92;;;14.90;75.80;;;;;;4913795;28;95787;-48
2023/01/09 01:28:22;;;;;;;63.65;48.58;;;14.90;75.90;;;;;;4913448;28;96837;-47
2023/01/09 01:30:48;;;;;;;63.63;48.92;;;14.90;75.90;;;;;;4917826;28;96527;-46
2023/01/09 01:33:13;;;;;;;63.83;49.00;;;14.90;75.80;;;;;;4922068;28;95243;-50
2023/01/09 01:35:39;;;;;;;65.05;49.22;;;14.90;75.90;;;;;;4927879;28;94922;-51
2023/01/09 01:38:04;;;;;;;63.80;48.92;;;14.90;75.90;;;;;;4920862;28;94964;-50
2023/01/09 01:40:31;;;;;;;64.35;49.42;;;14.80;75.80;;;;;;4921994;28;93952;-46
2023/01/09 01:42:57;;;;;;;63.42;49.03;;;14.90;76.00;;;;;;4917337;28;96559;-49
2023/01/09 01:45:27;;;;;;;64.53;49.00;;;14.80;75.80;;;;;;4917222;28;95812;-48
2023/01/09 01:47:58;;;;;;;64.82;48.95;;;14.80;75.80;;;;;;4913963;28;98907;-45
2023/01/09 01:50:30;;;;;;;63.95;48.65;;;14.80;75.50;;;;;;4912497;28;94909;-49
2023/01/09 01:53:15;;;;;;;63.22;48.65;;;14.80;75.70;;;;;;4912207;28;96738;-49
2023/01/09 01:55:55;;;;;;;63.58;48.80;;;14.80;75.90;;;;;;4922980;28;97105;-47
2023/01/09 01:58:21;;;;;;;62.85;48.75;;;14.80;75.70;;;;;;4920928;28;97558;-50
2023/01/09 02:00:47;;;;;;;64.05;48.95;;;14.80;75.90;;;;;;4917218;28;96510;-50
2023/01/09 02:03:17;;;;;;;63.80;48.67;;;14.80;75.70;;;;;;4921409;28;95381;-46
2023/01/09 02:05:44;;;;;;;63.83;48.63;;;14.80;75.70;;;;;;4912031;28;95214;-51
2023/01/09 02:08:10;;;;;;;63.85;48.95;;;14.80;75.50;;;;;;4915928;28;97172;-48
2023/01/09 02:10:38;;;;;;;63.58;48.63;;;14.80;75.70;;;;;;4924367;28;95042;-47
2023/01/09 02:13:05;;;;;;;65.65;49.00;;;14.80;75.60;;;;;;4921356;28;95682;-48
2023/01/09 02:16:06;;;;;;;63.17;48.85;;;14.80;75.60;;;;;;4918691;28;98891;-48
2023/01/09 02:18:50;;;;;;;64.57;49.20;;;14.70;75.70;;;;;;4914052;28;103328;-47
2023/01/09 02:21:28;;;;;;;63.20;48.85;;;14.70;75.70;;;;;;4908923;28;95717;-51
2023/01/09 02:24:15;;;;;;;63.72;48.67;;;14.70;75.60;;;;;;4911046;28;96060;-48
2023/01/09 02:27:28;;;;;;;62.63;48.22;;;14.70;75.70;;;;;;4917065;28;95138;-48
2023/01/09 02:30:39;;;;;;;65.97;48.92;;;14.70;75.60;;;;;;4908480;28;95197;-52
2023/01/09 02:33:19;;;;;;;63.28;48.97;;;14.70;75.60;;;;;;4904846;28;95586;-47
2023/01/09 02:36:02;;;;;;;63.05;48.55;;;14.70;75.40;;;;;;4908286;28;95365;-48
2023/01/09 02:38:41;;;;;;;62.92;48.53;;;14.70;75.60;;;;;;4923946;28;100723;-49
2023/01/09 02:41:13;;;;;;;64.22;48.58;;;14.70;75.40;;;;;;4916111;28;99683;-47
2023/01/09 02:43:40;;;;;;;65.45;48.90;;;14.70;75.40;;;;;;4915026;28;98323;-49
2023/01/09 02:46:20;;;;;;;63.75;48.90;;;14.70;75.50;;;;;;4921568;28;96446;-47
2023/01/09 02:48:49;;;;;;;63.75;48.60;;;14.70;75.50;;;;;;4922734;28;97330;-51
2023/01/09 02:51:24;;;;;;;64.10;48.92;;;14.70;75.60;;;;;;4926720;28;95294;-49
2023/01/09 02:53:52;;;;;;;63.20;48.67;;;14.60;75.40;;;;;;4936314;28;95082;-48
2023/01/09 02:56:24;;;;;;;63.45;49.05;;;14.60;75.60;;;;;;4919074;28;95576;-47
2023/01/09 02:58:49;;;;;;;;;;;14.70;75.40;;;;;;4924005;28;94865;-49
2023/01/09 03:01:33;;;;;;;64.13;48.42;;;14.60;75.40;;;;;;4925802;28;95361;-45
2023/01/09 03:04:30;;;;;;;62.95;48.67;;;14.60;75.40;;;;;;4930199;28;96393;-50
2023/01/09 03:07:07;;;;;;;63.08;48.92;;;14.60;75.60;;;;;;4924150;28;99152;-45
2023/01/09 03:09:36;;;;;;;63.10;48.70;;;14.60;75.50;;;;;;4917579;28;95000;-50
2023/01/09 03:12:10;;;;;;;62.83;48.80;;;14.60;75.30;;;;;;4919699;28;96901;-48
2023/01/09 03:14:39;;;;;;;64.13;48.80;;;14.60;75.60;;;;;;4919166;28;96084;-48
2023/01/09 03:17:09;;;;;;;63.63;48.80;;;14.60;75.50;;;;;;4918204;28;96544;-51
2023/01/09 03:19:35;;;;;;;62.35;48.63;;;14.60;75.50;;;;;;4924714;28;94637;-50
2023/01/09 03:22:01;;;;;;;64.57;49.00;;;14.60;75.20;;;;;;4917985;28;95244;-49
2023/01/09 03:24:27;;;;;;;62.67;48.58;;;14.50;75.40;;;;;;4913700;28;96776;-50
2023/01/09 03:26:55;;;;;;;62.88;48.72;;;14.50;75.40;;;;;;4930294;28;96284;-47
2023/01/09 03:29:21;;;;;;;62.88;48.67;;;14.50;75.70;;;;;;4921576;28;96243;-49
2023/01/09 03:31:47;;;;;;;64.40;48.92;;;14.50;75.50;;;;;;4915619;28;96290;-48
2023/01/09 03:34:12;;;;;;;65.47;49.17;;;14.50;75.50;;;;;;4917582;28;96925;-54
2023/01/09 03:36:38;;;;;;;62.42;48.75;;;14.50;75.30;;;;;;4920152;28;98643;-48
2023/01/09 03:39:04;;;;;;;62.88;48.90;;;14.50;75.20;;;;;;4920699;28;100247;-50
2023/01/09 03:41:29;;;;;;;62.60;48.53;;;14.50;75.30;;;;;;4918250;28;95871;-48
2023/01/09 03:43:55;;;;;;;63.47;48.60;;;14.50;75.50;;;;;;4919300;28;96493;-52
2023/01/09 03:46:21;;;;;;;62.95;48.75;;;14.50;75.60;;;;;;4929859;28;95836;-50
2023/01/09 03:48:47;;;;;;;63.75;48.28;;;14.50;75.40;;;;;;4924605;28;94913;-50
2023/01/09 03:51:13;;;;;;;63.40;48.42;;;14.40;75.50;;;;;;4923397;28;100965;-51
2023/01/09 03:53:39;;;;;;;63.80;48.42;;;14.40;75.50;;;;;;4916429;28;97439;-45
2023/01/09 03:56:05;;;;;;;65.03;49.08;;;14.40;75.40;;;;;;4920209;28;96428;-47
2023/01/09 03:58:30;;;;;;;64.05;49.03;;;14.50;75.60;;;;;;4914684;28;96407;-50
2023/01/09 04:01:01;;;;;;;64.72;48.08;;;14.40;75.60;;;;;;4915541;28;95898;-49
2023/01/09 04:03:27;;;;;;;64.15;48.42;;;14.50;75.30;;;;;;4921019;28;95154;-48
2023/01/09 04:05:53;;;;;;;64.07;48.67;;;14.40;75.60;;;;;;4919034;28;95198;-48
2023/01/09 04:08:19;;;;;;;63.55;48.35;;;14.40;75.30;;;;;;4918387;28;94820;-51
2023/01/09 04:10:45;;;;;;;63.90;49.25;;;14.50;75.20;;;;;;4918303;28;96961;-47
2023/01/09 04:13:11;;;;;;;62.83;48.55;;;14.50;75.40;;;;;;4922938;28;96244;-48
2023/01/09 04:15:37;;;;;;;64.35;48.85;;;14.50;75.40;;;;;;4912279;28;96863;-52
2023/01/09 04:18:03;;;;;;;65.05;48.83;;;14.40;75.30;;;;;;4916421;28;96527;-53
2023/01/09 04:20:29;;;;;;;63.97;48.53;;;14.40;75.40;;;;;;4911204;28;97757;-51
2023/01/09 04:22:55;;;;;;;64.15;48.38;;;14.40;75.40;;;;;;4926141;28;95545;-50
2023/01/09 04:25:21;;;;;;;64.43;48.60;;;14.40;75.60;;;;;;4920188;28;96108;-49
2023/01/09 04:27:47;;;;;;;64.25;48.83;;;14.40;75.40;;;;;;4910112;28;97276;-48
2023/01/09 04:30:13;;;;;;;64.93;48.40;;;14.40;75.20;;;;;;4919687;28;103271;-49
2023/01/09 04:32:39;;;;;;;64.55;48.80;;;14.40;75.20;;;;;;4923007;28;97059;-46
2023/01/09 04:35:05;;;;;;;65.68;49.13;;;14.40;75.10;;;;;;4920224;28;94904;-51
2023/01/09 04:37:31;;;;;;;63.72;48.95;;;14.40;75.10;;;;;;4922155;28;94999;-48
2023/01/09 04:39:57;;;;;;;63.58;48.60;;;14.40;75.20;;;;;;4916373;28;97272;-48
2023/01/09 04:42:23;;;;;;;64.40;49.03;;;14.40;75.20;;;;;;4922469;28;95706;-47
2023/01/09 04:44:52;;;;;;;65.43;48.88;;;14.40;75.00;;;;;;4933316;28;95561;-48
2023/01/09 04:47:19;;;;;;;62.33;48.38;;;14.40;74.90;;;;;;4923986;28;95775;-47
2023/01/09 04:49:44;;;;;;;64.38;48.95;;;14.40;74.80;;;;;;4916279;28;97908;-52
2023/01/09 04:52:10;;;;;;;64.82;48.92;;;14.40;75.10;;;;;;4917716;28;96748;-47
2023/01/09 04:54:38;;;;;;;63.72;49.08;;;14.40;75.20;;;;;;4913141;28;94941;-46
2023/01/09 04:57:04;;;;;;;65.85;48.80;;;14.40;75.00;;;;;;4926451;28;96537;-47
2023/01/09 04:59:29;;;;;;;63.60;48.50;;;14.40;74.80;;;;;;4911351;28;96539;-51
2023/01/09 05:01:57;;;;;;;64.28;48.80;;;14.40;75.00;;;;;;4908485;28;94830;-46
2023/01/09 05:04:23;;;;;;;64.68;48.88;;;14.40;75.10;;;;;;4929760;28;96558;-48
2023/01/09 05:06:49;;;;;;;62.90;48.78;;;14.40;74.60;;;;;;4922567;28;97113;-48
2023/01/09 05:09:14;;;;;;;63.65;48.47;;;14.40;74.80;;;;;;4916923;28;96684;-48
2023/01/09 05:11:40;;;;;;;62.97;48.92;;;14.40;75.00;;;;;;4916539;28;95962;-46
2023/01/09 05:14:06;;;;;;;63.47;48.72;;;14.40;74.80;;;;;;4928031;28;94985;-47
2023/01/09 05:16:32;;;;;;;65.13;48.75;;;14.40;74.80;;;;;;4930574;28;97792;-49
2023/01/09 05:18:59;;;;;;;65.43;48.67;;;14.40;74.80;;;;;;4919360;28;98719;-48
2023/01/09 05:21:25;;;;;;;64.25;48.90;;;14.50;74.80;;;;;;4915237;28;96742;-47
2023/01/09 05:23:51;;;;;;;64.75;49.20;;;14.60;74.60;;;;;;4919994;28;95937;-52
2023/01/09 05:26:17;;;;;;;64.05;49.17;;;14.50;74.40;;;;;;4910928;28;96532;-52
2023/01/09 05:28:43;;;;;;;62.90;48.85;;;14.40;74.70;;;;;;4914607;28;95238;-51
2023/01/09 05:31:09;;;;;;;64.97;49.08;;;14.40;74.80;;;;;;4916161;28;96420;-47
2023/01/09 05:33:34;;;;;;;66.25;49.13;;;14.40;74.80;;;;;;4925065;28;96017;-47
2023/01/09 05:36:00;;;;;;;65.63;49.92;;;14.40;74.80;;;;;;4914190;28;96698;-51
2023/01/09 05:38:25;;;;;;;66.22;49.00;;;14.40;74.90;;;;;;4924569;28;95077;-52
2023/01/09 05:40:51;;;;;;;67.25;49.00;;;14.40;74.70;;;;;;4917622;28;97295;-48
2023/01/09 05:43:17;;;;;;;67.18;49.45;;;14.40;75.10;;;;;;4916254;28;98021;-50
2023/01/09 05:45:42;;;;;;;69.53;49.85;;;14.40;74.60;;;;;;4916701;28;95493;-48
2023/01/09 05:48:08;;;;;;;67.75;49.13;;;14.50;74.60;;;;;;4920217;28;97446;-51
2023/01/09 05:50:34;;;;;;;68.75;49.58;;;14.50;74.40;;;;;;4921717;28;98335;-50
2023/01/09 05:52:59;;;;;;;66.95;49.55;;;14.50;74.20;;;;;;4923403;28;96738;-46
2023/01/09 05:55:25;;;;;;;67.72;49.40;;;14.50;74.60;;;;;;4926745;28;96671;-48
2023/01/09 05:57:50;;;;;;;69.55;49.97;;;14.50;75.30;;;;;;4919624;28;101163;-48
2023/01/09 06:00:17;;;;;;;65.35;49.17;;;14.50;74.70;;;;;;4912643;28;98336;-51
2023/01/09 06:02:42;;;;;;;68.15;50.20;;;14.50;74.60;;;;;;4922762;28;95666;-50
2023/01/09 06:05:08;;;;;;;66.45;49.53;;;14.50;74.40;;;;;;4922240;28;96321;-50
2023/01/09 06:07:38;;;;;;;67.70;49.38;;;14.60;74.30;;;;;;4929359;28;94883;-50
2023/01/09 06:10:03;;;;;;;72.47;49.50;;;14.50;74.60;;;;;;4910957;28;96565;-50
2023/01/09 06:12:29;;;;;;;67.20;49.30;;;14.40;75.40;;;;;;4915554;28;98093;-49
2023/01/09 06:14:55;;;;;;;66.18;48.95;;;14.50;75.50;;;;;;4929239;28;94458;-51
2023/01/09 06:17:20;;;;;;;68.63;49.25;;;14.50;75.60;;;;;;4928445;28;96345;-51
2023/01/09 06:19:46;;;;;;;67.15;49.78;;;14.40;76.00;;;;;;4919996;28;99247;-47
2023/01/09 06:22:12;;;;;;;70.13;49.75;;;14.40;76.30;;;;;;4916575;28;97606;-46
2023/01/09 06:24:37;;;;;;;67.65;49.58;;;14.40;76.60;;;;;;4917155;28;96441;-47
2023/01/09 06:27:03;;;;;;;68.03;49.50;;;14.50;76.40;;;;;;4910701;28;96354;-49
2023/01/09 06:29:29;;;;;;;69.20;49.88;;;14.50;76.40;;;;;;4906474;28;96871;-51
2023/01/09 06:31:54;;;;;;;66.32;49.17;;;14.50;76.70;;;;;;4926392;28;95868;-49
2023/01/09 06:34:20;;;;;;;68.28;49.83;;;14.50;76.10;;;;;;4923170;28;96031;-48
2023/01/09 06:36:45;;;;;;;65.90;49.63;;;14.50;75.90;;;;;;4922546;28;95394;-47
2023/01/09 06:39:12;;;;;;;64.85;49.28;;;14.50;75.90;;;;;;4916564;28;95015;-48
2023/01/09 06:41:38;;;;;;;68.40;49.80;;;14.50;76.40;;;;;;4918584;28;96665;-49
2023/01/09 06:44:04;;;;;;;69.60;49.60;;;14.50;76.40;;;;;;4911744;28;96379;-52
2023/01/09 06:46:29;;;;;;;68.40;49.72;;;14.50;76.50;;;;;;4923244;28;96335;-49
2023/01/09 06:48:55;;;;;;;67.03;49.78;;;14.60;76.20;;;;;;4918175;28;96563;-50
2023/01/09 06:51:20;;;;;;;69.60;49.45;;;14.50;75.80;;;;;;4922110;28;95379;-49
2023/01/09 06:53:46;;;;;;;65.25;49.85;;;14.50;75.90;;;;;;4922601;28;94904;-47
2023/01/09 06:56:12;;;;;;;66.72;49.45;;;14.50;75.90;;;;;;4916668;28;95135;-49
2023/01/09 06:58:37;;;;;;;67.35;49.08;;;14.40;75.90;;;;;;4921234;28;96063;-50
2023/01/09 07:01:03;;;;;;;69.70;49.65;;;14.40;76.80;;;;;;4920838;28;94939;-49
2023/01/09 07:03:29;;;;;;;65.60;49.58;;;14.30;76.10;;;;;;4913952;28;95135;-48
2023/01/09 07:05:54;;;;;;;65.07;49.03;;;14.30;76.30;;;;;;4924507;28;95947;-51
2023/01/09 07:08:20;;;;;;;65.65;49.53;;;14.30;76.50;;;;;;4918197;28;95614;-46
2023/01/09 07:10:45;;;;;;;65.93;49.65;;;14.30;76.70;;;;;;4923307;28;98383;-50
2023/01/09 07:13:11;;;;;;;66.40;49.28;;;14.30;76.70;;;;;;4921586;28;94702;-48
2023/01/09 07:15:37;;;;;;;67.20;49.92;;;14.20;76.80;;;;;;4922977;28;98374;-46
2023/01/09 07:18:03;;;;;;;67.18;49.55;;;14.20;76.60;;;;;;4920804;28;97931;-48
2023/01/09 07:20:29;;;;;;;69.78;49.83;;;14.20;76.80;;;;;;4917846;28;95360;-52
2023/01/09 07:22:55;;;;;;;67.93;50.30;;;14.20;77.00;;;;;;4912816;28;98280;-47
2023/01/09 07:25:20;;;;;;;68.70;49.75;;;14.20;77.30;;;;;;4919704;28;101238;-49
2023/01/09 07:27:46;;;;;;;65.55;49.20;;;14.20;77.80;;;;;;4913154;28;97115;-51
2023/01/09 07:30:12;;;;;;;65.22;49.58;;;14.20;77.00;;;;;;4913768;28;96265;-51
2023/01/09 07:32:39;;;;;;;66.65;49.33;;;14.10;77.20;;;;;;4926141;28;96198;-49
2023/01/09 07:35:06;;;;;;;68.90;49.53;;;14.20;77.10;;;;;;4932471;28;96132;-49
2023/01/09 07:37:33;;;;;;;66.20;49.45;;;14.20;77.20;;;;;;4919903;28;97245;-50
2023/01/09 07:39:59;;;;;;;67.32;49.25;;;14.10;77.20;;;;;;4923291;28;96567;-52
2023/01/09 07:42:24;;;;;;;65.07;49.20;;;14.10;77.20;;;;;;4926774;28;96524;-47
2023/01/09 07:44:50;;;;;;;66.53;49.70;;;14.10;77.20;;;;;;4918861;28;99218;-50
2023/01/09 07:47:16;;;;;;;65.07;49.80;;;14.10;77.40;;;;;;4921608;28;94931;-51
2023/01/09 07:49:41;;;;;;;64.53;49.03;;;14.10;77.20;;;;;;4915833;28;95740;-49
2023/01/09 07:52:07;;;;;;;65.20;49.17;;;14.10;77.10;;;;;;4921236;28;96587;-51
2023/01/09 07:54:33;;;;;;;66.80;49.50;;;14.10;77.20;;;;;;4922538;28;96706;-49
2023/01/09 07:56:58;;;;;;;64.32;49.17;;;14.10;77.30;;;;;;4922858;28;97093;-49
2023/01/09 07:59:25;;;;;;;64.28;48.80;;;14.10;77.40;;;;;;4922637;28;96663;-47
2023/01/09 08:01:50;;;;;;;65.47;49.55;;;14.10;77.00;;;;;;4917460;28;95493;-50
2023/01/09 08:04:16;;;;;;;65.20;49.33;;;14.00;77.10;;;;;;4918856;28;98390;-48
2023/01/09 08:06:42;;;;;;;64.25;48.95;;;14.00;77.40;;;;;;4926453;28;95542;-48
2023/01/09 08:09:07;;;;;;;63.90;49.33;;;14.10;77.20;;;;;;4927803;28;94715;-51
2023/01/09 08:11:33;;;;;;;66.10;49.47;;;14.00;77.20;;;;;;4924744;28;97038;-50
2023/01/09 08:13:58;;;;;;;63.67;49.20;;;14.00;77.40;;;;;;4918522;28;95368;-49
2023/01/09 08:16:24;;;;;;;64.75;49.03;;;14.00;77.40;;;;;;4921888;28;95197;-48
2023/01/09 08:18:50;;;;;;;65.93;49.08;;;14.00;77.20;;;;;;4913834;28;96165;-50
2023/01/09 08:21:15;;;;;;;64.20;49.35;;;14.00;77.20;;;;;;4916970;28;94728;-51
2023/01/09 08:23:41;;;;;;;63.95;49.05;;;14.00;77.20;;;;;;4913123;28;97152;-49
2023/01/09 08:26:07;;;;;;;65.47;49.30;;;14.00;77.30;;;;;;4930832;28;101024;-52
2023/01/09 08:28:32;;;;;;;64.80;49.53;;;14.00;77.30;;;;;;4919066;28;98154;-46
2023/01/09 08:30:58;;;;;;;65.53;49.70;;;14.00;77.20;;;;;;4931907;28;95061;-48
2023/01/09 08:33:24;;;;;;;64.80;49.20;;;14.00;77.40;;;;;;4923773;28;95704;-52
2023/01/09 08:35:49;;;;;;;63.15;48.78;;;14.00;77.20;;;;;;4915765;28;96563;-53
2023/01/09 08:38:15;;;;;;;65.40;48.75;;;14.00;78.10;;;;;;4919769;28;95489;-49
2023/01/09 08:40:41;;;;;;;64.95;49.20;;;14.00;77.30;;;;;;4919663;28;94889;-48
2023/01/09 08:48:36;;;;;;;62.50;48.45;;;14.00;77.20;;;;;;4924133;28;96107;-48
2023/01/09 08:51:01;;;;;;;63.13;48.83;;;14.00;77.20;;;;;;4917579;28;95503;-46
2023/01/09 08:53:28;;;;;;;63.80;48.83;;;14.00;77.30;;;;;;4924499;28;97885;-47
2023/01/09 08:55:54;;;;;;;62.60;48.75;;;14.00;77.90;;;;;;4927307;28;96361;-51
2023/01/09 08:58:19;;;;;;;64.30;48.90;;;14.00;77.30;;;;;;4923713;28;96086;-51
2023/01/09 09:00:45;;;;;;;63.95;49.08;;;14.00;77.30;;;;;;4922227;28;98613;-49
2023/01/09 09:03:11;;;;;;;63.28;48.47;;;14.00;77.30;;;;;;4917900;28;99539;-48
2023/01/09 09:05:37;;;;;;;62.53;48.67;;;14.00;77.10;;;;;;4927396;28;98119;-48
2023/01/09 09:08:03;;;;;;;65.13;49.15;;;14.00;77.20;;;;;;4920696;28;96330;-51
2023/01/09 09:10:29;;;;;;;62.75;48.72;;;14.00;77.20;;;;;;4922001;28;94771;-50
2023/01/09 09:12:56;;;;;;;65.35;48.63;;;14.00;77.20;;;;;;4920462;28;98144;-49
2023/01/09 09:15:23;;;;;;;65.13;49.25;;;14.00;77.10;;;;;;4924255;28;96127;-49
2023/01/09 09:17:54;;;;;;;63.00;49.05;;;14.00;77.10;;;;;;4920815;28;97033;-48
2023/01/09 09:20:25;;;;;;;63.17;48.88;;;14.00;76.90;;;;;;4925602;28;95397;-47
2023/01/09 09:22:51;;;;;;;62.20;48.47;;;14.00;77.10;;;;;;4921524;28;99427;-44
2023/01/09 09:25:18;;;;;;;62.67;48.53;;;14.00;76.90;;;;;;4922874;28;96008;-49
2023/01/09 09:27:44;;;;;;;62.55;48.72;;;14.00;77.00;;;;;;4924860;28;95460;-49
2023/01/09 09:30:11;;;;;;;63.92;49.15;;;14.00;77.10;;;;;;4922686;28;97705;-50
2023/01/09 09:32:38;;;;;;;63.53;48.67;;;14.00;76.80;;;;;;4916939;28;94806;-48
2023/01/09 09:35:04;;;;;;;63.05;48.65;;;14.00;77.00;;;;;;4920639;28;95950;-50
2023/01/09 09:37:30;;;;;;;64.95;49.28;;;14.00;77.00;;;;;;4920041;28;96586;-50
2023/01/09 09:39:55;;;;;;;63.28;48.85;;;14.00;76.90;;;;;;4921954;28;94732;-52
2023/01/09 09:45:45;;;;;;;62.65;48.88;;;13.90;76.90;;;;;;4913337;28;98455;-48
2023/01/09 09:48:31;;;;;;;64.40;48.88;;;14.00;76.90;;;;;;4912872;28;96444;-50
2023/01/09 09:51:27;;;;;;;63.72;48.55;;;14.00;76.80;;;;;;4919795;28;95073;-47
2023/01/09 09:53:58;;;;;;;63.60;48.72;;;14.00;76.70;;;;;;4916968;28;95557;-48
2023/01/09 09:56:26;;;;;;;62.72;48.47;;;14.00;76.90;;;;;;4919022;28;95299;-50
2023/01/09 09:59:17;;;;;;;62.95;48.38;;;14.00;76.50;;;;;;4923605;28;97440;-50
2023/01/09 10:02:04;;;;;;;62.22;48.25;;;14.00;76.80;;;;;;4924927;28;96573;-47
2023/01/09 10:04:32;;;;;;;62.88;48.80;;;14.00;76.70;;;;;;4921840;28;96292;-50
2023/01/09 10:07:05;;;;;;;62.67;48.80;;;14.00;76.60;;;;;;4917503;28;95030;-45
2023/01/09 10:09:59;;;;;;;61.67;48.53;;;14.00;77.40;;;;;;4923010;28;95199;-51
2023/01/09 10:12:34;;;;;;;63.03;48.25;;;14.00;76.60;;;;;;4930665;28;97297;-51
2023/01/09 10:15:06;;;;;;;63.10;48.78;;;14.00;76.30;;;;;;4925057;28;95324;-48
2023/01/09 10:17:50;;;;;;;62.85;48.75;;;14.00;76.50;;;;;;4920647;28;95717;-47
2023/01/09 10:20:21;;;;;;;63.28;48.88;;;14.00;76.50;;;;;;4920593;28;94694;-50
2023/01/09 10:22:47;;;;;;;;;;;14.00;76.30;;;;;;4926052;28;96846;-49
2023/01/09 10:26:03;;;;;;;61.95;48.40;;;14.00;76.30;;;;;;4924204;28;97150;-48
2023/01/09 10:28:53;;;;;;;63.35;48.25;;;14.00;76.40;;;;;;4919003;28;98111;-52
2023/01/09 10:31:37;;;;;;;61.90;48.38;;;14.00;76.20;;;;;;4908797;28;98601;-51
2023/01/09 10:34:13;;;;;;;63.05;48.83;;;14.00;76.30;;;;;;4917874;28;94889;-50
2023/01/09 10:36:44;;;;;;;63.25;48.33;;;14.00;76.30;;;;;;4920202;28;95143;-47
2023/01/09 10:39:21;;;;;;;63.50;48.75;;;14.00;76.20;;;;;;4920609;28;95431;-47
2023/01/09 10:42:00;;;;;;;62.50;48.45;;;14.00;76.30;;;;;;4914512;28;97026;-47
2023/01/09 10:44:38;;;;;;;64.40;48.97;;;14.00;76.30;;;;;;4913313;28;96876;-49
2023/01/09 10:47:20;;;;;;;62.85;48.90;;;14.10;76.10;;;;;;4903632;28;97594;-48
2023/01/09 10:49:46;;;;;;;;;;;14.00;76.20;;;;;;4908199;28;97172;-52
2023/01/09 10:52:15;;;;;;;64.28;48.72;;;14.00;76.30;;;;;;4925568;28;96320;-45
2023/01/09 10:54:59;;;;;;;65.00;48.85;;;14.00;76.20;;;;;;4922280;28;97529;-46
2023/01/09 10:57:40;;;;;;;64.43;48.83;;;14.00;76.20;;;;;;4933259;28;96380;-47
2023/01/09 11:00:12;;;;;;;64.13;48.70;;;14.00;76.30;;;;;;4917172;28;98749;-47
2023/01/09 11:02:38;;;;;;;64.75;48.55;;;14.00;76.10;;;;;;4925284;28;95162;-52
2023/01/09 11:05:04;;;;;;;64.03;49.00;;;14.00;76.20;;;;;;4922052;28;97287;-47
2023/01/09 11:07:35;;;;;;;63.42;48.53;;;14.00;76.20;;;;;;4924698;28;95876;-49
2023/01/09 11:10:08;;;;;;;64.40;48.90;;;14.10;76.00;;;;;;4924476;28;95406;-51
2023/01/09 11:12:35;;;;;;;63.72;48.88;;;14.10;75.90;;;;;;4921132;28;96963;-47
2023/01/09 11:15:30;;;;;;;63.03;48.88;;;14.20;75.70;;;;;;4927647;28;94749;-50
2023/01/09 11:18:23;;;;;;;63.45;48.50;;;14.20;75.80;;;;;;4925502;28;95132;-50
2023/01/09 11:20:50;;;;;;;64.60;48.90;;;14.30;75.40;;;;;;4932019;28;96410;-51
2023/01/09 11:23:41;;;;;;;62.63;48.63;;;14.40;75.20;;;;;;4924789;28;97301;-50
2023/01/09 11:26:19;;;;;;;;;;;14.40;75.20;;;;;;4928908;28;94673;-47
2023/01/09 11:29:06;;;;;;;66.22;48.65;;;14.40;75.30;;;;;;4932764;28;95277;-50
2023/01/09 11:31:32;;;;;;;63.70;48.70;;;14.40;75.40;;;;;;4918800;28;98418;-50
2023/01/09 11:33:58;;;;;;;63.28;48.50;;;14.30;75.50;;;;;;4913452;28;95737;-48
2023/01/09 11:36:24;;;;;;;68.00;49.13;;;14.30;75.70;;;;;;4924699;28;97263;-51
2023/01/09 11:38:56;;;;;;;67.22;48.83;;;14.30;75.70;;;;;;4920513;28;97402;-49
2023/01/09 11:41:25;;;;;;;64.63;48.67;;;14.40;75.60;;;;;;4921623;28;94409;-48
2023/01/09 11:43:54;;;;;;;64.63;48.88;;;14.40;75.60;;;;;;4917638;28;97539;-49
2023/01/09 11:46:33;;;;;;;65.55;48.90;;;14.40;75.60;;;;;;4912146;28;98327;-45
2023/01/09 11:49:01;;;;;;;63.45;48.80;;;14.40;75.60;;;;;;4909363;28;99713;-46
2023/01/09 11:51:29;;;;;;;63.15;48.50;;;14.40;75.50;;;;;;4934099;28;98261;-50
2023/01/09 11:54:11;;;;;;;66.93;48.78;;;14.40;75.60;;;;;;4937504;28;95176;-47
2023/01/09 11:56:37;;;;;;;66.15;48.58;;;14.40;75.50;;;;;;4922150;28;97346;-51
2023/01/09 11:59:29;;;;;;;65.43;49.20;;;14.40;75.60;;;;;;4912838;28;98964;-47
2023/01/09 12:02:20;;;;;;;64.55;48.78;;;14.40;75.70;;;;;;4917689;28;99297;-49
2023/01/09 12:05:02;;;;;;;64.43;49.05;;;14.40;75.50;;;;;;4920299;28;95480;-50
2023/01/09 12:07:52;;;;;;;65.00;48.85;;;14.40;75.60;;;;;;4920349;28;94725;-49
2023/01/09 12:10:39;;;;;;;65.53;49.17;;;14.40;75.60;;;;;;4919103;28;96582;-47
2023/01/09 12:13:33;;;;;;;64.18;49.00;;;14.40;75.60;;;;;;4921960;28;98821;-49
2023/01/09 12:16:09;;;;;;;63.70;49.05;;;14.40;75.60;;;;;;4935219;28;101710;-51
2023/01/09 12:19:04;;;;;;;63.22;48.92;;;14.30;75.60;;;;;;4915813;28;96515;-50
2023/01/09 12:21:30;;;;;;;63.72;48.85;;;14.40;75.70;;;;;;4913867;28;98970;-50
2023/01/09 12:24:28;;;;;;;64.35;48.92;;;14.40;75.80;;;;;;4927817;28;96287;-49
2023/01/09 12:27:08;;;;;;;69.68;49.38;;;14.40;75.80;;;;;;4925992;28;97505;-49
2023/01/09 12:30:15;;;;;;;64.95;49.42;;;14.40;75.70;;;;;;4930228;28;95069;-47
2023/01/09 12:33:01;;;;;;;63.63;48.85;;;14.40;75.70;;;;;;4916947;28;95600;-46
2023/01/09 12:35:49;;;;;;;63.75;48.20;;;14.40;75.80;;;;;;4926099;28;95066;-53
2023/01/09 12:38:34;;;;;;;63.88;48.58;;;14.30;75.80;;;;;;4920916;28;95106;-50
2023/01/09 12:41:23;;;;;;;63.42;48.50;;;14.30;75.70;;;;;;4925470;28;95652;-49
2023/01/09 12:44:09;;;;;;;65.72;48.35;;;14.30;75.90;;;;;;4926013;28;101108;-47
2023/01/09 12:46:58;;;;;;;66.90;49.13;;;14.30;75.90;;;;;;4912392;28;96133;-47
2023/01/09 12:49:31;;;;;;;65.05;48.95;;;14.30;76.00;;;;;;4932214;28;94898;-50
2023/01/09 12:52:11;;;;;;;64.45;49.08;;;14.20;75.90;;;;;;4916148;28;95175;-47
2023/01/09 12:54:48;;;;;;;65.00;48.95;;;14.20;75.90;;;;;;4914157;28;99670;-52
2023/01/09 12:57:39;;;;;;;65.15;48.63;;;14.20;76.10;;;;;;4923394;28;95078;-47